sensor_id;sensor_type;location;lat;lon;timestamp;pressure;altitude;pressure_sealevel;temperature;humidity
30682;BME280;17439;48.092;11.842;2023-02-15T00:00:44;96763.25;;;2.25;66.78
30682;BME280;17439;48.092;11.842;2023-02-15T00:03:11;96767.53;;;2.26;66.94
30682;BME280;17439;48.092;11.842;2023-02-15T00:05:38;96763.25;;;2.25;66.80
30682;BME280;17439;48.092;11.842;2023-02-15T00:08:04;96758.69;;;2.25;66.87
30682;BME280;17439;48.092;11.842;2023-02-15T00:10:31;96756.03;;;2.25;67.07
30682;BME280;17439;48.092;11.842;2023-02-15T00:12:59;96757.88;;;2.25;66.70
30682;BME280;17439;48.092;11.842;2023-02-15T00:15:26;96743.66;;;2.24;67.09
30682;BME280;17439;48.092;11.842;2023-02-15T00:17:53;96750.09;;;2.23;67.08
30682;BME280;17439;48.092;11.842;2023-02-15T00:20:19;96758.13;;;2.23;66.79
30682;BME280;17439;48.092;11.842;2023-02-15T00:22:46;96751.13;;;2.22;66.96
30682;BME280;17439;48.092;11.842;2023-02-15T00:25:12;96753.00;;;2.22;66.88
30682;BME280;17439;48.092;11.842;2023-02-15T00:27:39;96756.69;;;2.21;66.68
30682;BME280;17439;48.092;11.842;2023-02-15T00:30:06;96755.88;;;2.20;66.71
30682;BME280;17439;48.092;11.842;2023-02-15T00:32:33;96754.47;;;2.17;66.84
30682;BME280;17439;48.092;11.842;2023-02-15T00:35:00;96753.22;;;2.20;66.88
30682;BME280;17439;48.092;11.842;2023-02-15T00:37:27;96749.72;;;2.20;66.90
30682;BME280;17439;48.092;11.842;2023-02-15T00:39:54;96755.88;;;2.20;66.71
30682;BME280;17439;48.092;11.842;2023-02-15T00:42:20;96750.53;;;2.20;66.70
30682;BME280;17439;48.092;11.842;2023-02-15T00:44:47;96746.22;;;2.19;66.75
30682;BME280;17439;48.092;11.842;2023-02-15T00:47:13;96746.44;;;2.17;66.81
30682;BME280;17439;48.092;11.842;2023-02-15T00:49:40;96746.66;;;2.16;66.49
30682;BME280;17439;48.092;11.842;2023-02-15T00:52:06;96746.09;;;2.14;66.53
30682;BME280;17439;48.092;11.842;2023-02-15T00:54:34;96735.03;;;2.10;66.54
30682;BME280;17439;48.092;11.842;2023-02-15T00:57:02;96741.84;;;2.06;66.40
30682;BME280;17439;48.092;11.842;2023-02-15T00:59:29;96727.91;;;2.04;66.45
30682;BME280;17439;48.092;11.842;2023-02-15T01:01:55;96736.16;;;2.03;66.90
30682;BME280;17439;48.092;11.842;2023-02-15T01:04:22;96728.56;;;1.99;66.67
30682;BME280;17439;48.092;11.842;2023-02-15T01:06:48;96733.56;;;1.96;66.62
30682;BME280;17439;48.092;11.842;2023-02-15T01:09:15;96725.16;;;1.92;66.93
30682;BME280;17439;48.092;11.842;2023-02-15T01:11:42;96723.31;;;1.93;67.19
30682;BME280;17439;48.092;11.842;2023-02-15T01:14:08;96716.91;;;1.94;67.17
30682;BME280;17439;48.092;11.842;2023-02-15T01:16:37;96719.56;;;1.94;67.31
30682;BME280;17439;48.092;11.842;2023-02-15T01:19:04;96715.28;;;1.93;67.08
30682;BME280;17439;48.092;11.842;2023-02-15T01:21:31;96705.16;;;1.95;67.05
30682;BME280;17439;48.092;11.842;2023-02-15T01:23:58;96712.16;;;1.96;67.14
30682;BME280;17439;48.092;11.842;2023-02-15T01:26:24;96710.28;;;1.96;67.19
30682;BME280;17439;48.092;11.842;2023-02-15T01:28:51;96703.91;;;1.97;67.21
30682;BME280;17439;48.092;11.842;2023-02-15T01:31:20;96710.06;;;1.98;66.59
30682;BME280;17439;48.092;11.842;2023-02-15T01:33:48;96703.69;;;1.99;66.87
30682;BME280;17439;48.092;11.842;2023-02-15T01:36:15;96702.41;;;2.02;66.81
30682;BME280;17439;48.092;11.842;2023-02-15T01:38:41;96701.59;;;2.01;66.70
30682;BME280;17439;48.092;11.842;2023-02-15T01:41:08;96701.38;;;2.03;66.67
30682;BME280;17439;48.092;11.842;2023-02-15T01:43:40;96699.72;;;2.02;66.26
30682;BME280;17439;48.092;11.842;2023-02-15T01:46:08;96697.28;;;2.00;66.55
30682;BME280;17439;48.092;11.842;2023-02-15T01:48:41;96701.00;;;1.99;66.29
30682;BME280;17439;48.092;11.842;2023-02-15T01:51:10;96697.28;;;2.00;66.77
30682;BME280;17439;48.092;11.842;2023-02-15T01:53:44;96692.97;;;1.99;66.28
30682;BME280;17439;48.092;11.842;2023-02-15T01:56:19;96685.75;;;1.99;66.23
30682;BME280;17439;48.092;11.842;2023-02-15T01:58:49;96683.66;;;2.02;66.81
30682;BME280;17439;48.092;11.842;2023-02-15T02:01:17;96679.97;;;2.03;66.80
30682;BME280;17439;48.092;11.842;2023-02-15T02:06:32;96676.94;;;1.99;66.49
30682;BME280;17439;48.092;11.842;2023-02-15T02:09:00;96675.50;;;1.96;66.23
30682;BME280;17439;48.092;11.842;2023-02-15T02:11:27;96666.69;;;1.96;66.37
30682;BME280;17439;48.092;11.842;2023-02-15T02:13:55;96664.81;;;1.96;66.34
30682;BME280;17439;48.092;11.842;2023-02-15T02:18:58;96660.72;;;1.94;65.98
30682;BME280;17439;48.092;11.842;2023-02-15T02:21:54;96660.94;;;1.92;65.98
30682;BME280;17439;48.092;11.842;2023-02-15T02:35:25;96656.75;;;1.85;66.15
30682;BME280;17439;48.092;11.842;2023-02-15T02:43:38;96653.84;;;1.86;66.63
30682;BME280;17439;48.092;11.842;2023-02-15T02:46:13;96645.56;;;1.88;66.67
30682;BME280;17439;48.092;11.842;2023-02-15T02:48:43;96648.88;;;1.90;66.75
30682;BME280;17439;48.092;11.842;2023-02-15T02:51:11;96640.94;;;1.83;66.46
30682;BME280;17439;48.092;11.842;2023-02-15T02:53:41;96639.41;;;1.87;67.02
30682;BME280;17439;48.092;11.842;2023-02-15T02:56:21;96641.88;;;1.89;66.40
30682;BME280;17439;48.092;11.842;2023-02-15T02:58:57;96643.50;;;1.90;66.73
30682;BME280;17439;48.092;11.842;2023-02-15T03:01:31;96638.16;;;1.90;66.88
30682;BME280;17439;48.092;11.842;2023-02-15T03:04:05;96629.09;;;1.91;66.77
30682;BME280;17439;48.092;11.842;2023-02-15T03:06:40;96631.75;;;1.91;66.78
30682;BME280;17439;48.092;11.842;2023-02-15T03:09:14;96631.19;;;1.89;66.37
30682;BME280;17439;48.092;11.842;2023-02-15T03:11:44;96625.81;;;1.89;66.82
30682;BME280;17439;48.092;11.842;2023-02-15T03:14:14;96631.97;;;1.89;66.90
30682;BME280;17439;48.092;11.842;2023-02-15T03:16:46;96620.47;;;1.89;66.46
30682;BME280;17439;48.092;11.842;2023-02-15T03:19:22;96624.19;;;1.88;66.09
30682;BME280;17439;48.092;11.842;2023-02-15T03:21:51;96637.56;;;1.88;66.66
30682;BME280;17439;48.092;11.842;2023-02-15T03:24:23;96644.41;;;1.84;66.64
30682;BME280;17439;48.092;11.842;2023-02-15T03:26:53;96640.31;;;1.81;67.04
30682;BME280;17439;48.092;11.842;2023-02-15T03:29:23;96644.88;;;1.80;67.05
30682;BME280;17439;48.092;11.842;2023-02-15T03:31:54;96645.91;;;1.79;66.88
30682;BME280;17439;48.092;11.842;2023-02-15T03:34:23;96642.63;;;1.77;67.05
30682;BME280;17439;48.092;11.842;2023-02-15T03:36:53;96652.53;;;1.77;66.98
30682;BME280;17439;48.092;11.842;2023-02-15T03:42:33;96649.03;;;1.76;66.62
30682;BME280;17439;48.092;11.842;2023-02-15T03:45:09;96637.28;;;1.77;67.17
30682;BME280;17439;48.092;11.842;2023-02-15T03:47:40;96640.53;;;1.79;67.35
30682;BME280;17439;48.092;11.842;2023-02-15T03:50:11;96643.84;;;1.81;67.50
30682;BME280;17439;48.092;11.842;2023-02-15T03:52:39;96650.22;;;1.80;67.35
30682;BME280;17439;48.092;11.842;2023-02-15T03:55:06;96643.84;;;1.81;67.08
30682;BME280;17439;48.092;11.842;2023-02-15T03:57:35;96649.19;;;1.81;66.77
30682;BME280;17439;48.092;11.842;2023-02-15T04:00:09;96644.88;;;1.80;66.79
30682;BME280;17439;48.092;11.842;2023-02-15T04:05:36;96658.09;;;1.75;66.54
30682;BME280;17439;48.092;11.842;2023-02-15T04:08:03;96651.25;;;1.79;66.82
30682;BME280;17439;48.092;11.842;2023-02-15T04:10:30;96661.94;;;1.79;66.85
30682;BME280;17439;48.092;11.842;2023-02-15T04:12:57;96663.59;;;1.80;66.93
30682;BME280;17439;48.092;11.842;2023-02-15T04:15:23;96659.50;;;1.78;66.83
30682;BME280;17439;48.092;11.842;2023-02-15T04:17:50;96650.09;;;1.75;66.55
30682;BME280;17439;48.092;11.842;2023-02-15T04:20:17;96659.13;;;1.74;66.68
30682;BME280;17439;48.092;11.842;2023-02-15T04:22:43;96652.13;;;1.73;67.10
30682;BME280;17439;48.092;11.842;2023-02-15T04:25:10;96644.72;;;1.75;66.80
30682;BME280;17439;48.092;11.842;2023-02-15T04:27:37;96648.22;;;1.76;66.65
30682;BME280;17439;48.092;11.842;2023-02-15T04:30:05;96650.66;;;1.77;66.50
30682;BME280;17439;48.092;11.842;2023-02-15T04:32:32;96646.97;;;1.78;66.51
30682;BME280;17439;48.092;11.842;2023-02-15T04:34:59;96649.03;;;1.76;66.28
30682;BME280;17439;48.092;11.842;2023-02-15T04:37:25;96654.38;;;1.76;66.27
30682;BME280;17439;48.092;11.842;2023-02-15T04:39:52;96647.41;;;1.75;66.28
30682;BME280;17439;48.092;11.842;2023-02-15T04:42:19;96652.53;;;1.77;66.46
30682;BME280;17439;48.092;11.842;2023-02-15T04:44:45;96659.72;;;1.76;66.27
30682;BME280;17439;48.092;11.842;2023-02-15T04:47:12;96654.59;;;1.75;66.52
30682;BME280;17439;48.092;11.842;2023-02-15T04:49:38;96659.34;;;1.73;66.43
30682;BME280;17439;48.092;11.842;2023-02-15T04:52:05;96650.75;;;1.71;66.47
30682;BME280;17439;48.092;11.842;2023-02-15T04:54:32;96650.75;;;1.71;66.65
30682;BME280;17439;48.092;11.842;2023-02-15T04:56:58;96656.09;;;1.71;67.01
30682;BME280;17439;48.092;11.842;2023-02-15T04:59:25;96660.88;;;1.69;67.06
30682;BME280;17439;48.092;11.842;2023-02-15T05:01:52;96659.81;;;1.70;67.03
30682;BME280;17439;48.092;11.842;2023-02-15T05:04:18;96659.00;;;1.69;66.74
30682;BME280;17439;48.092;11.842;2023-02-15T05:06:45;96666.44;;;1.67;66.53
30682;BME280;17439;48.092;11.842;2023-02-15T05:09:12;96667.69;;;1.65;66.32
30682;BME280;17439;48.092;11.842;2023-02-15T05:11:39;96668.34;;;1.60;66.39
30682;BME280;17439;48.092;11.842;2023-02-15T05:14:05;96669.59;;;1.57;66.68
30682;BME280;17439;48.092;11.842;2023-02-15T05:16:32;96661.00;;;1.55;66.83
30682;BME280;17439;48.092;11.842;2023-02-15T05:18:58;96660.19;;;1.55;67.00
30682;BME280;17439;48.092;11.842;2023-02-15T05:21:25;96650.53;;;1.54;66.89
30682;BME280;17439;48.092;11.842;2023-02-15T05:23:52;96662.03;;;1.54;66.97
30682;BME280;17439;48.092;11.842;2023-02-15T05:26:21;96663.69;;;1.55;66.88
30682;BME280;17439;48.092;11.842;2023-02-15T05:28:48;96665.31;;;1.56;67.13
30682;BME280;17439;48.092;11.842;2023-02-15T05:31:17;96666.94;;;1.57;67.02
30682;BME280;17439;48.092;11.842;2023-02-15T05:33:44;96671.03;;;1.60;67.25
30682;BME280;17439;48.092;11.842;2023-02-15T05:36:11;96668.13;;;1.61;67.20
30682;BME280;17439;48.092;11.842;2023-02-15T05:38:38;96661.75;;;1.62;67.14
30682;BME280;17439;48.092;11.842;2023-02-15T05:41:06;96659.88;;;1.63;67.18
30682;BME280;17439;48.092;11.842;2023-02-15T05:43:33;96659.66;;;1.65;67.18
30682;BME280;17439;48.092;11.842;2023-02-15T05:46:01;96660.25;;;1.67;67.10
30682;BME280;17439;48.092;11.842;2023-02-15T05:48:29;96667.47;;;1.66;66.85
30682;BME280;17439;48.092;11.842;2023-02-15T05:51:10;96673.84;;;1.65;66.21
30682;BME280;17439;48.092;11.842;2023-02-15T05:53:38;96672.06;;;1.59;66.08
30682;BME280;17439;48.092;11.842;2023-02-15T05:56:07;96674.16;;;1.57;66.28
30682;BME280;17439;48.092;11.842;2023-02-15T05:58:38;96672.38;;;1.51;65.57
30682;BME280;17439;48.092;11.842;2023-02-15T06:01:15;96671.56;;;1.50;65.85
30682;BME280;17439;48.092;11.842;2023-02-15T06:03:42;96667.84;;;1.51;66.30
30682;BME280;17439;48.092;11.842;2023-02-15T06:06:09;96674.81;;;1.52;66.48
30682;BME280;17439;48.092;11.842;2023-02-15T06:08:37;96667.03;;;1.51;66.62
30682;BME280;17439;48.092;11.842;2023-02-15T06:11:04;96668.66;;;1.52;66.62
30682;BME280;17439;48.092;11.842;2023-02-15T06:13:32;96680.16;;;1.52;66.89
30682;BME280;17439;48.092;11.842;2023-02-15T06:16:04;96674.81;;;1.52;67.11
30682;BME280;17439;48.092;11.842;2023-02-15T06:18:31;96690.84;;;1.52;66.82
30682;BME280;17439;48.092;11.842;2023-02-15T06:20:58;96689.25;;;1.51;66.88
30682;BME280;17439;48.092;11.842;2023-02-15T06:23:24;96689.00;;;1.53;66.96
30682;BME280;17439;48.092;11.842;2023-02-15T06:25:51;96689.59;;;1.55;67.02
30682;BME280;17439;48.092;11.842;2023-02-15T06:28:18;96693.09;;;1.55;66.98
30682;BME280;17439;48.092;11.842;2023-02-15T06:30:44;96689.16;;;1.58;67.05
30682;BME280;17439;48.092;11.842;2023-02-15T06:33:11;96690.78;;;1.59;66.99
30682;BME280;17439;48.092;11.842;2023-02-15T06:35:37;96690.78;;;1.59;66.78
30682;BME280;17439;48.092;11.842;2023-02-15T06:38:04;96692.41;;;1.60;66.78
30682;BME280;17439;48.092;11.842;2023-02-15T06:40:30;96688.72;;;1.61;66.69
30682;BME280;17439;48.092;11.842;2023-02-15T06:42:57;96682.53;;;1.60;66.69
30682;BME280;17439;48.092;11.842;2023-02-15T06:45:23;96678.81;;;1.61;66.67
30682;BME280;17439;48.092;11.842;2023-02-15T06:47:50;96681.28;;;1.63;66.55
30682;BME280;17439;48.092;11.842;2023-02-15T06:50:17;96689.28;;;1.63;66.88
30682;BME280;17439;48.092;11.842;2023-02-15T06:52:43;96688.28;;;1.64;66.72
30682;BME280;17439;48.092;11.842;2023-02-15T06:55:10;96681.28;;;1.63;66.94
30682;BME280;17439;48.092;11.842;2023-02-15T06:57:36;96685.59;;;1.64;67.12
30682;BME280;17439;48.092;11.842;2023-02-15T07:00:03;96683.50;;;1.66;67.32
30682;BME280;17439;48.092;11.842;2023-02-15T07:02:30;96683.28;;;1.68;67.21
30682;BME280;17439;48.092;11.842;2023-02-15T07:04:57;96687.34;;;1.70;67.20
30682;BME280;17439;48.092;11.842;2023-02-15T07:07:24;96684.22;;;1.73;67.49
30682;BME280;17439;48.092;11.842;2023-02-15T07:09:50;96696.78;;;1.73;67.22
30682;BME280;17439;48.092;11.842;2023-02-15T07:12:17;96691.00;;;1.76;66.89
30682;BME280;17439;48.092;11.842;2023-02-15T07:14:43;96686.00;;;1.79;67.04
30682;BME280;17439;48.092;11.842;2023-02-15T07:17:10;96695.44;;;1.82;67.06
30682;BME280;17439;48.092;11.842;2023-02-15T07:19:57;96693.34;;;1.84;66.84
30682;BME280;17439;48.092;11.842;2023-02-15T07:22:23;96692.09;;;1.87;66.74
30682;BME280;17439;48.092;11.842;2023-02-15T07:24:50;96698.03;;;1.89;66.71
30682;BME280;17439;48.092;11.842;2023-02-15T07:27:17;96703.97;;;1.91;66.95
30682;BME280;17439;48.092;11.842;2023-02-15T07:29:43;96703.53;;;1.94;67.08
30682;BME280;17439;48.092;11.842;2023-02-15T07:32:10;96706.81;;;1.96;67.14
30682;BME280;17439;48.092;11.842;2023-02-15T07:34:36;96700.16;;;1.98;67.20
30682;BME280;17439;48.092;11.842;2023-02-15T07:37:03;96695.22;;;2.02;67.20
30682;BME280;17439;48.092;11.842;2023-02-15T07:39:30;96699.63;;;2.08;67.27
30682;BME280;17439;48.092;11.842;2023-02-15T07:41:56;96698.16;;;2.12;67.46
30682;BME280;17439;48.092;11.842;2023-02-15T07:44:29;96704.25;;;2.20;67.17
30682;BME280;17439;48.092;11.842;2023-02-15T07:46:55;96700.84;;;2.24;67.04
30682;BME280;17439;48.092;11.842;2023-02-15T07:49:22;96698.56;;;2.28;66.71
30682;BME280;17439;48.092;11.842;2023-02-15T07:51:49;96695.44;;;2.31;66.54
30682;BME280;17439;48.092;11.842;2023-02-15T07:54:15;96691.47;;;2.33;66.74
30682;BME280;17439;48.092;11.842;2023-02-15T07:56:42;96687.75;;;2.34;66.57
30682;BME280;17439;48.092;11.842;2023-02-15T07:59:09;96690.22;;;2.36;66.42
30682;BME280;17439;48.092;11.842;2023-02-15T08:01:37;96675.31;;;2.40;66.68
30682;BME280;17439;48.092;11.842;2023-02-15T08:04:05;96683.50;;;2.45;66.82
30682;BME280;17439;48.092;11.842;2023-02-15T08:06:34;96683.25;;;2.47;66.80
30682;BME280;17439;48.092;11.842;2023-02-15T08:09:07;96683.38;;;2.52;66.23
30682;BME280;17439;48.092;11.842;2023-02-15T08:11:36;96681.28;;;2.54;66.25
30682;BME280;17439;48.092;11.842;2023-02-15T08:14:10;96677.94;;;2.59;66.63
30682;BME280;17439;48.092;11.842;2023-02-15T08:21:37;96666.28;;;2.65;65.37
30682;BME280;17439;48.092;11.842;2023-02-15T08:24:05;96670.16;;;2.69;66.00
30682;BME280;17439;48.092;11.842;2023-02-15T08:26:32;96668.53;;;2.68;65.38
30682;BME280;17439;48.092;11.842;2023-02-15T08:28:59;96660.13;;;2.76;66.41
30682;BME280;17439;48.092;11.842;2023-02-15T08:31:27;96666.06;;;2.78;66.26
30682;BME280;17439;48.092;11.842;2023-02-15T08:33:55;96664.56;;;2.82;66.29
30682;BME280;17439;48.092;11.842;2023-02-15T08:36:23;96661.78;;;2.77;64.06
30682;BME280;17439;48.092;11.842;2023-02-15T08:38:50;96659.56;;;2.86;66.53
30682;BME280;17439;48.092;11.842;2023-02-15T08:41:21;96664.22;;;2.90;66.69
30682;BME280;17439;48.092;11.842;2023-02-15T08:43:53;96654.69;;;2.95;66.31
30682;BME280;17439;48.092;11.842;2023-02-15T08:46:21;96660.16;;;3.00;66.55
30682;BME280;17439;48.092;11.842;2023-02-15T08:48:48;96660.84;;;3.07;66.83
30682;BME280;17439;48.092;11.842;2023-02-15T08:53:45;96657.84;;;3.15;66.13
30682;BME280;17439;48.092;11.842;2023-02-15T08:56:12;96654.22;;;3.21;66.71
30682;BME280;17439;48.092;11.842;2023-02-15T08:58:39;96654.31;;;3.26;66.89
30682;BME280;17439;48.092;11.842;2023-02-15T09:01:13;96656.06;;;3.33;65.80
30682;BME280;17439;48.092;11.842;2023-02-15T09:03:40;96656.97;;;3.38;66.71
30682;BME280;17439;48.092;11.842;2023-02-15T09:06:07;96659.75;;;3.43;66.61
30682;BME280;17439;48.092;11.842;2023-02-15T09:08:34;96660.69;;;3.49;66.61
30682;BME280;17439;48.092;11.842;2023-02-15T09:11:05;96664.56;;;3.53;65.24
30682;BME280;17439;48.092;11.842;2023-02-15T09:13:33;96662.22;;;3.57;65.85
30682;BME280;17439;48.092;11.842;2023-02-15T09:16:01;96659.53;;;3.57;65.56
30682;BME280;17439;48.092;11.842;2023-02-15T09:18:31;96654.72;;;3.59;65.35
30682;BME280;17439;48.092;11.842;2023-02-15T09:23:33;96661.50;;;3.61;66.02
30682;BME280;17439;48.092;11.842;2023-02-15T09:26:09;96664.19;;;3.61;64.98
30682;BME280;17439;48.092;11.842;2023-02-15T09:28:36;96660.44;;;3.62;65.44
30682;BME280;17439;48.092;11.842;2023-02-15T09:33:34;96658.44;;;3.58;65.89
30682;BME280;17439;48.092;11.842;2023-02-15T09:36:02;96660.66;;;3.61;66.02
30682;BME280;17439;48.092;11.842;2023-02-15T09:38:28;96662.78;;;3.59;66.38
30682;BME280;17439;48.092;11.842;2023-02-15T09:44:14;96664.84;;;3.69;66.00
30682;BME280;17439;48.092;11.842;2023-02-15T09:47:06;96668.47;;;3.74;65.89
30682;BME280;17439;48.092;11.842;2023-02-15T09:49:52;96662.97;;;3.81;66.25
30682;BME280;17439;48.092;11.842;2023-02-15T09:52:37;96669.81;;;3.89;65.79
30682;BME280;17439;48.092;11.842;2023-02-15T09:55:31;96662.09;;;3.92;65.20
30682;BME280;17439;48.092;11.842;2023-02-15T10:00:49;96661.88;;;3.94;65.20
30682;BME280;17439;48.092;11.842;2023-02-15T10:06:46;96668.88;;;3.95;65.55
30682;BME280;17439;48.092;11.842;2023-02-15T10:12:32;96658.47;;;3.98;65.40
30682;BME280;17439;48.092;11.842;2023-02-15T10:15:16;96658.00;;;4.02;66.19
30682;BME280;17439;48.092;11.842;2023-02-15T10:20:44;96646.63;;;4.11;66.39
30682;BME280;17439;48.092;11.842;2023-02-15T10:26:13;96636.81;;;4.17;66.29
30682;BME280;17439;48.092;11.842;2023-02-15T10:29:00;96628.28;;;4.20;66.37
30682;BME280;17439;48.092;11.842;2023-02-15T10:31:51;96627.81;;;4.23;66.50
30682;BME280;17439;48.092;11.842;2023-02-15T10:34:52;96623.81;;;4.26;66.50
30682;BME280;17439;48.092;11.842;2023-02-15T10:45:58;96620.41;;;4.64;68.03
30682;BME280;17439;48.092;11.842;2023-02-15T10:51:46;96612.19;;;4.88;67.37
30682;BME280;17439;48.092;11.842;2023-02-15T10:57:56;96606.00;;;5.04;66.70
30682;BME280;17439;48.092;11.842;2023-02-15T11:00:36;96599.94;;;5.14;67.10
30682;BME280;17439;48.092;11.842;2023-02-15T11:06:30;96586.13;;;5.27;67.61
30682;BME280;17439;48.092;11.842;2023-02-15T11:09:04;96579.50;;;5.35;67.32
30682;BME280;17439;48.092;11.842;2023-02-15T11:11:37;96594.22;;;5.50;67.83
30682;BME280;17439;48.092;11.842;2023-02-15T11:14:13;96579.25;;;5.59;67.32
30682;BME280;17439;48.092;11.842;2023-02-15T11:16:45;96584.00;;;5.74;67.72
30682;BME280;17439;48.092;11.842;2023-02-15T11:19:22;96580.59;;;5.84;66.77
30682;BME280;17439;48.092;11.842;2023-02-15T11:21:59;96580.72;;;5.94;67.00
30682;BME280;17439;48.092;11.842;2023-02-15T11:24:29;96579.53;;;6.07;67.81
30682;BME280;17439;48.092;11.842;2023-02-15T11:27:00;96575.56;;;6.14;67.23
30682;BME280;17439;48.092;11.842;2023-02-15T11:29:38;96571.09;;;6.25;67.13
30682;BME280;17439;48.092;11.842;2023-02-15T11:32:18;96559.03;;;6.33;67.00
30682;BME280;17439;48.092;11.842;2023-02-15T11:37:59;96555.44;;;6.54;67.19
30682;BME280;17439;48.092;11.842;2023-02-15T11:40:46;96545.81;;;6.64;66.39
30682;BME280;17439;48.092;11.842;2023-02-15T11:43:17;96544.81;;;6.75;66.86
30682;BME280;17439;48.092;11.842;2023-02-15T11:45:47;96538.13;;;6.83;67.45
30682;BME280;17439;48.092;11.842;2023-02-15T11:48:15;96536.56;;;6.92;67.27
30682;BME280;17439;48.092;11.842;2023-02-15T11:50:43;96531.47;;;7.01;67.56
30682;BME280;17439;48.092;11.842;2023-02-15T11:53:17;96520.19;;;7.09;64.21
30682;BME280;17439;48.092;11.842;2023-02-15T11:55:46;96520.25;;;7.19;65.76
30682;BME280;17439;48.092;11.842;2023-02-15T12:00:58;96520.09;;;7.47;65.17
30682;BME280;17439;48.092;11.842;2023-02-15T12:03:37;96511.75;;;7.58;64.81
30682;BME280;17439;48.092;11.842;2023-02-15T12:06:14;96512.06;;;7.72;62.91
30682;BME280;17439;48.092;11.842;2023-02-15T12:08:49;96512.38;;;7.86;63.78
30682;BME280;17439;48.092;11.842;2023-02-15T12:11:25;96499.97;;;8.01;64.70
30682;BME280;17439;48.092;11.842;2023-02-15T12:13:58;96493.50;;;8.12;65.34
30682;BME280;17439;48.092;11.842;2023-02-15T12:16:27;96487.00;;;8.23;65.45
30682;BME280;17439;48.092;11.842;2023-02-15T12:18:56;96484.56;;;8.27;63.16
30682;BME280;17439;48.092;11.842;2023-02-15T12:21:29;96491.06;;;8.36;61.62
30682;BME280;17439;48.092;11.842;2023-02-15T12:24:17;96482.16;;;8.46;61.81
30682;BME280;17439;48.092;11.842;2023-02-15T12:26:44;96479.47;;;8.46;59.63
30682;BME280;17439;48.092;11.842;2023-02-15T12:29:25;96483.50;;;8.64;63.97
30682;BME280;17439;48.092;11.842;2023-02-15T12:31:52;96478.88;;;8.75;63.98
30682;BME280;17439;48.092;11.842;2023-02-15T12:34:24;96480.47;;;8.81;63.23
30682;BME280;17439;48.092;11.842;2023-02-15T12:36:54;96472.91;;;8.88;63.71
30682;BME280;17439;48.092;11.842;2023-02-15T12:39:24;96465.28;;;8.95;63.90
30682;BME280;17439;48.092;11.842;2023-02-15T12:44:24;96473.13;;;9.02;62.85
30682;BME280;17439;48.092;11.842;2023-02-15T12:47:05;96461.19;;;9.08;61.10
30682;BME280;17439;48.092;11.842;2023-02-15T12:49:37;96461.44;;;9.17;62.77
30682;BME280;17439;48.092;11.842;2023-02-15T12:54:46;96457.28;;;9.35;63.72
30682;BME280;17439;48.092;11.842;2023-02-15T12:59:59;96452.41;;;9.42;61.29
30682;BME280;17439;48.092;11.842;2023-02-15T13:05:19;96439.06;;;9.51;60.04
30682;BME280;17439;48.092;11.842;2023-02-15T13:07:50;96435.53;;;9.55;61.57
30682;BME280;17439;48.092;11.842;2023-02-15T13:10:36;96429.81;;;9.62;60.20
30682;BME280;17439;48.092;11.842;2023-02-15T13:13:16;96423.28;;;9.68;61.25
30682;BME280;17439;48.092;11.842;2023-02-15T13:15:48;96419.19;;;9.71;61.57
30682;BME280;17439;48.092;11.842;2023-02-15T13:18:21;96411.31;;;9.74;60.57
30682;BME280;17439;48.092;11.842;2023-02-15T13:20:52;96411.81;;;9.82;62.46
30682;BME280;17439;48.092;11.842;2023-02-15T13:23:30;96403.94;;;9.85;59.93
30682;BME280;17439;48.092;11.842;2023-02-15T13:26:03;96408.78;;;9.88;60.42
30682;BME280;17439;48.092;11.842;2023-02-15T13:28:52;96409.59;;;9.89;59.79
30682;BME280;17439;48.092;11.842;2023-02-15T13:31:23;96408.50;;;9.90;60.41
30682;BME280;17439;48.092;11.842;2023-02-15T13:33:55;96401.41;;;9.94;60.59
30682;BME280;17439;48.092;11.842;2023-02-15T13:36:30;96407.38;;;9.96;61.89
30682;BME280;17439;48.092;11.842;2023-02-15T13:39:11;96403.56;;;9.97;59.95
30682;BME280;17439;48.092;11.842;2023-02-15T13:41:59;96399.47;;;9.99;60.92
30682;BME280;17439;48.092;11.842;2023-02-15T13:47:27;96402.38;;;10.08;60.10
30682;BME280;17439;48.092;11.842;2023-02-15T13:53:02;96394.22;;;10.13;59.80
30682;BME280;17439;48.092;11.842;2023-02-15T13:55:55;96404.50;;;10.16;59.79
30682;BME280;17439;48.092;11.842;2023-02-15T14:01:14;96400.63;;;10.23;60.97
30682;BME280;17439;48.092;11.842;2023-02-15T14:07:13;96395.97;;;10.28;57.98
30682;BME280;17439;48.092;11.842;2023-02-15T14:16:09;96397.84;;;10.33;60.30
30682;BME280;17439;48.092;11.842;2023-02-15T14:18:54;96388.00;;;10.42;59.88
30682;BME280;17439;48.092;11.842;2023-02-15T14:21:31;96390.72;;;10.42;59.88
30682;BME280;17439;48.092;11.842;2023-02-15T14:24:28;96391.25;;;10.44;60.58
30682;BME280;17439;48.092;11.842;2023-02-15T14:27:09;96386.91;;;10.43;59.91
30682;BME280;17439;48.092;11.842;2023-02-15T14:29:59;96388.25;;;10.46;59.57
30682;BME280;17439;48.092;11.842;2023-02-15T14:32:39;96390.09;;;10.50;59.82
30682;BME280;17439;48.092;11.842;2023-02-15T14:35:16;96393.09;;;10.49;59.94
30682;BME280;17439;48.092;11.842;2023-02-15T14:43:23;96392.38;;;10.38;59.46
30682;BME280;17439;48.092;11.842;2023-02-15T14:49:11;96381.91;;;10.26;59.72
30682;BME280;17439;48.092;11.842;2023-02-15T14:54:10;96376.28;;;10.17;60.29
30682;BME280;17439;48.092;11.842;2023-02-15T14:56:37;96377.41;;;10.16;60.36
30682;BME280;17439;48.092;11.842;2023-02-15T14:59:18;96371.50;;;10.09;60.25
30682;BME280;17439;48.092;11.842;2023-02-15T15:01:58;96367.72;;;10.05;60.75
30682;BME280;17439;48.092;11.842;2023-02-15T15:04:27;96371.00;;;10.02;61.26
30682;BME280;17439;48.092;11.842;2023-02-15T15:09:31;96372.72;;;9.93;61.80
30682;BME280;17439;48.092;11.842;2023-02-15T15:14:53;96377.88;;;9.89;62.45
30682;BME280;17439;48.092;11.842;2023-02-15T15:25:43;96381.28;;;9.71;62.47
30682;BME280;17439;48.092;11.842;2023-02-15T15:45:19;96397.47;;;9.36;60.56
30682;BME280;17439;48.092;11.842;2023-02-15T15:50:34;96401.34;;;9.25;60.25
30682;BME280;17439;48.092;11.842;2023-02-15T15:53:02;96394.31;;;9.19;60.37
30682;BME280;17439;48.092;11.842;2023-02-15T15:55:32;96396.00;;;9.15;60.26